createdAt,value
2018-01-15T00:01:30.038Z,9.55
2018-01-15T00:03:59.036Z,12.10
2018-01-15T00:06:28.815Z,6.53
2018-01-15T00:08:57.715Z,17.65
2018-01-15T00:11:26.526Z,7.62
2018-01-15T00:13:55.458Z,16.67
2018-01-15T00:16:24.366Z,11.15
2018-01-15T00:18:53.225Z,9.50
2018-01-15T00:21:23.247Z,11.65
2018-01-15T00:23:52.100Z,9.75
2018-01-15T00:26:21.002Z,11.00
2018-01-15T00:28:51.035Z,12.48
2018-01-15T00:31:19.893Z,11.52
2018-01-15T00:33:48.806Z,11.00
2018-01-15T00:36:17.731Z,9.20
2018-01-15T00:38:46.582Z,8.25
2018-01-15T00:41:15.403Z,11.45
2018-01-15T00:43:44.357Z,9.45
2018-01-15T00:46:13.189Z,16.50
2018-01-15T00:48:42.018Z,9.82
2018-01-15T00:51:11.004Z,9.35
2018-01-15T00:53:39.829Z,7.95
2018-01-15T00:56:08.654Z,8.40
2018-01-15T00:58:40.072Z,9.45
2018-01-15T01:01:08.902Z,10.43
2018-01-15T01:03:37.743Z,7.80
2018-01-15T01:06:07.452Z,8.85
2018-01-15T01:08:36.333Z,9.40
2018-01-15T01:11:05.205Z,7.07
2018-01-15T01:13:34.057Z,5.80
2018-01-15T01:16:02.994Z,7.80
2018-01-15T01:18:31.944Z,9.45
2018-01-15T01:21:00.835Z,7.97
2018-01-15T01:23:29.661Z,9.90
2018-01-15T01:25:58.561Z,13.20
2018-01-15T01:28:27.487Z,9.80
2018-01-15T01:30:59.130Z,8.30
2018-01-15T01:33:28.076Z,6.50
2018-01-15T01:36:01.217Z,6.50
2018-01-15T01:38:30.053Z,9.27
2018-01-15T01:40:58.851Z,6.12
2018-01-15T01:43:27.796Z,8.30
2018-01-15T01:45:56.639Z,14.32
2018-01-15T01:48:25.445Z,6.47
2018-01-15T01:50:54.396Z,8.48
2018-01-15T01:53:23.288Z,5.47
2018-01-15T01:55:52.095Z,7.18
2018-01-15T01:58:21.970Z,6.03
2018-01-15T02:00:50.850Z,10.90
2018-01-15T02:03:19.650Z,7.60
2018-01-15T02:05:50.388Z,5.60
2018-01-15T02:08:19.239Z,9.35
2018-01-15T02:10:48.104Z,8.48
2018-01-15T02:13:16.983Z,6.57
2018-01-15T02:15:45.908Z,6.45
2018-01-15T02:18:14.767Z,10.65
2018-01-15T02:20:44.443Z,7.97
2018-01-15T02:23:13.307Z,8.82
2018-01-15T02:25:42.199Z,4.97
2018-01-15T02:28:17.891Z,11.32
2018-01-15T02:30:46.732Z,5.25
2018-01-15T02:33:15.686Z,6.53
2018-01-15T02:35:46.197Z,7.50
2018-01-15T02:38:15.007Z,7.43
2018-01-15T02:40:44.990Z,5.05
2018-01-15T02:43:16.617Z,6.43
2018-01-15T02:45:45.431Z,7.65
2018-01-15T02:48:14.240Z,9.18
2018-01-15T02:50:45.789Z,8.13
2018-01-15T02:53:14.656Z,9.75
2018-01-15T02:55:43.475Z,6.43
2018-01-15T02:58:14.830Z,4.55
2018-01-15T03:00:52.712Z,8.85
2018-01-15T03:03:22.590Z,6.80
2018-01-15T03:05:51.589Z,5.70
2018-01-15T03:08:21.878Z,10.63
2018-01-15T03:10:51.799Z,20.45
2018-01-15T03:13:21.913Z,11.55
2018-01-15T03:15:51.914Z,5.90
2018-01-15T03:18:22.874Z,8.70
2018-01-15T03:20:51.868Z,7.62
2018-01-15T03:23:21.770Z,9.18
2018-01-15T03:25:50.879Z,7.65
2018-01-15T03:28:19.842Z,7.20
2018-01-15T03:30:48.773Z,7.68
2018-01-15T03:33:20.319Z,8.02
2018-01-15T03:35:49.308Z,10.38
2018-01-15T03:38:18.298Z,5.30
2018-01-15T03:40:48.269Z,15.48
2018-01-15T03:43:17.261Z,5.82
2018-01-15T03:45:46.042Z,8.13
2018-01-15T03:48:14.914Z,9.88
2018-01-15T03:50:43.720Z,9.60
2018-01-15T03:53:12.468Z,6.85
2018-01-15T03:55:41.278Z,12.25
2018-01-15T03:58:10.081Z,11.18
2018-01-15T04:00:38.872Z,8.45
2018-01-15T04:03:10.468Z,7.43
2018-01-15T04:05:39.252Z,7.25
2018-01-15T04:08:08.020Z,7.50
2018-01-15T04:10:37.131Z,6.97
2018-01-15T04:13:06.043Z,8.02
2018-01-15T04:15:35.054Z,16.77
2018-01-15T04:18:06.227Z,7.95
2018-01-15T04:20:35.186Z,6.50
2018-01-15T04:23:04.290Z,10.10
2018-01-15T04:25:33.276Z,10.07
2018-01-15T04:28:07.180Z,7.85
2018-01-15T04:30:37.991Z,6.93
2018-01-15T04:33:07.014Z,5.37
2018-01-15T04:35:36.220Z,7.32
2018-01-15T04:38:06.404Z,8.40
2018-01-15T04:40:35.233Z,7.43
2018-01-15T04:43:04.168Z,8.60
2018-01-15T04:45:33.014Z,7.95
2018-01-15T04:48:01.815Z,6.12
2018-01-15T04:50:30.638Z,7.22
2018-01-15T04:53:00.358Z,8.68
2018-01-15T04:55:29.144Z,10.90
2018-01-15T04:57:57.954Z,7.72
2018-01-15T05:00:28.473Z,8.85
2018-01-15T05:02:59.222Z,7.22
2018-01-15T05:05:28.038Z,9.38
2018-01-15T05:07:56.935Z,7.80
2018-01-15T05:10:25.709Z,8.70
2018-01-15T05:12:56.581Z,9.82
2018-01-15T05:15:27.896Z,8.73
2018-01-15T05:17:56.777Z,14.73
2018-01-15T05:20:25.629Z,11.02
2018-01-15T05:22:55.372Z,12.37
2018-01-15T05:25:24.287Z,10.50
2018-01-15T05:27:53.091Z,8.07
2018-01-15T05:30:25.827Z,8.80
2018-01-15T05:32:54.650Z,12.98
2018-01-15T05:35:23.485Z,6.45
2018-01-15T05:37:52.322Z,9.90
2018-01-15T05:40:21.278Z,10.45
2018-01-15T05:42:50.105Z,6.22
2018-01-15T05:45:21.535Z,7.22
2018-01-15T05:47:50.347Z,8.90
2018-01-15T05:50:19.292Z,10.07
2018-01-15T05:52:48.151Z,8.68
2018-01-15T05:55:16.961Z,10.40
2018-01-15T05:57:45.851Z,9.73
2018-01-15T06:00:16.617Z,8.77
2018-01-15T06:02:45.425Z,9.27
2018-01-15T06:05:14.215Z,8.52
2018-01-15T06:07:48.180Z,10.10
2018-01-15T06:10:17.069Z,11.88
2018-01-15T06:12:45.871Z,13.45
2018-01-15T06:15:15.520Z,9.38
2018-01-15T06:17:44.316Z,55.35
2018-01-15T06:20:13.255Z,37.97
2018-01-15T06:22:42.439Z,16.80
2018-01-15T06:25:11.274Z,19.92
2018-01-15T06:27:40.064Z,16.35
2018-01-15T06:30:09.741Z,20.50
2018-01-15T06:32:38.528Z,32.78
2018-01-15T06:35:07.338Z,23.50
2018-01-15T06:37:41.229Z,22.15
2018-01-15T06:40:10.053Z,30.88
2018-01-15T06:42:38.930Z,23.87
2018-01-15T06:45:07.995Z,29.95
2018-01-15T06:47:36.930Z,39.30
2018-01-15T06:50:05.785Z,31.98
2018-01-15T06:52:34.628Z,20.30
2018-01-15T06:55:03.466Z,33.40
2018-01-15T06:57:32.443Z,22.50
2018-01-15T07:00:03.078Z,12.75
2018-01-15T07:02:31.974Z,13.62
2018-01-15T07:05:02.672Z,11.98
2018-01-15T07:07:31.560Z,13.38
2018-01-15T07:10:00.380Z,14.23
2018-01-15T07:12:30.538Z,16.27
2018-01-15T07:15:00.857Z,19.12
2018-01-15T07:17:29.698Z,19.00
2018-01-15T07:19:58.536Z,16.98
2018-01-15T07:22:27.542Z,19.35
2018-01-15T07:24:56.448Z,15.40
2018-01-15T07:27:25.389Z,15.70
2018-01-15T07:29:56.877Z,15.20
2018-01-15T07:32:25.745Z,11.80
2018-01-15T07:34:54.613Z,14.87
2018-01-15T07:37:23.498Z,17.05
2018-01-15T07:39:52.431Z,32.33
2018-01-15T07:42:22.406Z,19.80
2018-01-15T07:44:51.308Z,18.12
2018-01-15T07:47:20.212Z,14.15
2018-01-15T07:49:49.122Z,20.27
2018-01-15T07:52:21.350Z,22.27
2018-01-15T07:54:50.181Z,25.45
2018-01-15T07:57:19.065Z,14.90
2018-01-15T07:59:47.981Z,21.48
2018-01-15T08:02:16.830Z,17.05
2018-01-15T08:04:45.696Z,13.07
2018-01-15T08:07:14.560Z,15.52
2018-01-15T08:09:43.396Z,17.52
2018-01-15T08:12:12.227Z,16.55
2018-01-15T08:14:41.995Z,14.93
2018-01-15T08:17:10.826Z,19.62
2018-01-15T08:19:39.691Z,18.10
2018-01-15T08:22:08.546Z,16.30
2018-01-15T08:24:37.406Z,16.35
2018-01-15T08:27:06.212Z,13.82
2018-01-15T08:29:35.082Z,16.65
2018-01-15T08:32:03.940Z,16.35
2018-01-15T08:34:32.770Z,12.55
2018-01-15T08:37:03.289Z,19.30
2018-01-15T08:39:32.113Z,13.23
2018-01-15T08:42:00.990Z,14.50
2018-01-15T08:44:30.880Z,18.48
2018-01-15T08:46:59.700Z,14.98
2018-01-15T08:49:28.503Z,19.10
2018-01-15T08:51:59.965Z,14.32
2018-01-15T08:54:28.775Z,23.92
2018-01-15T08:56:57.585Z,27.25
2018-01-15T08:59:26.457Z,56.72
2018-01-15T09:01:55.298Z,53.30
2018-01-15T09:04:24.079Z,29.70
2018-01-15T09:06:55.087Z,27.67
2018-01-15T09:09:23.939Z,27.73
2018-01-15T09:11:52.788Z,22.42
2018-01-15T09:14:23.358Z,27.85
2018-01-15T09:16:52.182Z,24.48
2018-01-15T09:19:21.013Z,25.12
2018-01-15T09:21:51.687Z,18.73
2018-01-15T09:24:20.480Z,28.17
2018-01-15T09:26:49.308Z,18.48
2018-01-15T09:29:18.140Z,25.42
2018-01-15T09:31:46.942Z,16.33
2018-01-15T09:34:15.782Z,22.13
2018-01-15T09:36:49.008Z,15.07
2018-01-15T09:39:17.857Z,13.82
2018-01-15T09:41:46.661Z,15.02
2018-01-15T09:44:16.330Z,15.38
2018-01-15T09:46:45.151Z,12.00
2018-01-15T09:49:13.960Z,10.40
2018-01-15T09:51:42.816Z,12.43
2018-01-15T09:54:11.644Z,16.90
2018-01-15T09:56:40.458Z,16.58
2018-01-15T09:59:10.174Z,13.90
2018-01-15T10:01:39.020Z,17.95
2018-01-15T10:04:07.795Z,20.70
2018-01-15T10:06:40.538Z,18.55
2018-01-15T10:09:09.430Z,13.07
2018-01-15T10:11:38.376Z,12.18
2018-01-15T10:14:08.133Z,12.57
2018-01-15T10:16:36.998Z,10.85
2018-01-15T10:19:05.823Z,14.20
2018-01-15T10:21:34.722Z,11.15
2018-01-15T10:24:03.618Z,11.25
2018-01-15T10:26:32.480Z,11.35
2018-01-15T10:29:04.867Z,11.43
2018-01-15T10:31:33.654Z,16.85
2018-01-15T10:34:02.508Z,11.80
2018-01-15T10:36:34.113Z,12.40
2018-01-15T10:39:02.966Z,15.20
2018-01-15T10:41:31.804Z,16.15
2018-01-15T10:44:00.697Z,20.23
2018-01-15T10:46:29.543Z,17.35
2018-01-15T10:48:58.362Z,13.55
2018-01-15T10:51:27.231Z,12.13
2018-01-15T10:53:56.055Z,16.23
2018-01-15T10:56:24.964Z,14.13
2018-01-15T10:58:56.283Z,14.35
2018-01-15T11:01:27.995Z,11.57
2018-01-15T11:03:56.840Z,14.68
2018-01-15T11:06:26.508Z,10.85
2018-01-15T11:08:55.335Z,13.65
2018-01-15T11:11:24.152Z,14.43
2018-01-15T11:13:53.034Z,22.48
2018-01-15T11:16:21.824Z,20.92
2018-01-15T11:18:50.725Z,21.67
2018-01-15T11:21:19.636Z,18.25
2018-01-15T11:23:48.574Z,15.05
2018-01-15T11:26:17.445Z,20.55
2018-01-15T11:28:47.281Z,16.08
2018-01-15T11:31:16.119Z,23.00
2018-01-15T11:33:44.999Z,16.52
2018-01-15T11:36:16.258Z,13.98
2018-01-15T11:38:45.070Z,16.20
2018-01-15T11:41:13.872Z,13.38
2018-01-15T11:43:44.523Z,14.35
2018-01-15T11:46:13.314Z,12.95
2018-01-15T11:48:42.125Z,12.05
2018-01-15T11:51:14.332Z,17.73
2018-01-15T11:53:43.105Z,11.75
2018-01-15T11:56:11.895Z,13.05
2018-01-15T11:58:40.770Z,16.52
2018-01-15T12:01:09.556Z,11.95
2018-01-15T12:03:38.448Z,14.70
2018-01-15T12:06:08.125Z,12.63
2018-01-15T12:08:39.069Z,14.50
2018-01-15T12:11:07.912Z,13.95
2018-01-15T12:13:36.950Z,13.48
2018-01-15T12:16:05.751Z,14.15
2018-01-15T12:18:34.633Z,13.93
2018-01-15T12:21:03.701Z,15.63
2018-01-15T12:23:32.552Z,13.55
2018-01-15T12:26:01.456Z,14.40
2018-01-15T12:28:31.267Z,17.65
2018-01-15T12:31:00.088Z,11.85
2018-01-15T12:33:28.878Z,14.02
2018-01-15T12:35:57.736Z,18.77
2018-01-15T12:38:27.521Z,18.60
2018-01-15T12:40:56.404Z,16.17
2018-01-15T12:43:26.085Z,17.02
2018-01-15T12:45:54.900Z,20.65
2018-01-15T12:48:23.710Z,18.90
2018-01-15T12:50:53.388Z,18.08
2018-01-15T12:53:22.247Z,13.13
2018-01-15T12:55:51.115Z,10.35
2018-01-15T12:58:23.352Z,14.07
2018-01-15T13:00:52.176Z,51.50
2018-01-15T13:03:21.299Z,25.05
2018-01-15T13:05:54.086Z,25.40
2018-01-15T13:08:34.525Z,18.60
2018-01-15T13:11:03.634Z,22.98
2018-01-15T13:13:32.445Z,26.52
2018-01-15T13:16:01.296Z,28.85
2018-01-15T13:18:32.579Z,24.30
2018-01-15T13:21:01.396Z,22.83
2018-01-15T13:23:30.225Z,26.33
2018-01-15T13:25:59.076Z,22.52
2018-01-15T13:28:27.891Z,24.60
2018-01-15T13:30:56.691Z,27.27
2018-01-15T13:33:25.614Z,29.12
2018-01-15T13:35:54.427Z,29.42
2018-01-15T13:38:23.313Z,24.70
2018-01-15T13:40:52.249Z,22.08
2018-01-15T13:43:21.096Z,23.42
2018-01-15T13:45:49.947Z,25.37
2018-01-15T13:48:19.636Z,42.53
2018-01-15T13:50:48.539Z,45.38
2018-01-15T13:53:17.684Z,77.93
2018-01-15T13:55:47.498Z,44.67
2018-01-15T13:58:16.289Z,104.28
2018-01-15T14:00:45.254Z,79.70
2018-01-15T14:03:15.018Z,107.07
2018-01-15T14:05:43.823Z,108.20
2018-01-15T14:08:12.644Z,360.55
2018-01-15T14:10:42.902Z,101.60
2018-01-15T14:13:11.853Z,229.27
2018-01-15T14:15:40.681Z,102.07
2018-01-15T14:18:09.548Z,47.05
2018-01-15T14:20:38.398Z,41.03
2018-01-15T14:23:07.202Z,34.00
2018-01-15T14:25:36.192Z,38.22
2018-01-15T14:28:05.021Z,36.17
2018-01-15T14:30:34.203Z,62.53
2018-01-15T14:33:03.093Z,66.65
2018-01-15T14:35:31.956Z,76.22
2018-01-15T14:38:00.772Z,82.15
2018-01-15T14:40:29.804Z,79.50
2018-01-15T14:42:58.610Z,81.85
2018-01-15T14:45:27.461Z,54.45
2018-01-15T14:47:59.737Z,56.92
2018-01-15T14:50:28.590Z,55.08
2018-01-15T14:52:57.393Z,94.80
2018-01-15T14:55:27.047Z,64.22
2018-01-15T14:57:55.955Z,67.18
2018-01-15T15:00:24.801Z,65.80
2018-01-15T15:02:53.657Z,66.87
2018-01-15T15:05:22.530Z,105.12
2018-01-15T15:07:51.421Z,135.88
2018-01-15T15:10:21.255Z,73.87
2018-01-15T15:12:50.183Z,34.22
2018-01-15T15:15:19.053Z,33.00
2018-01-15T15:17:47.984Z,38.28
2018-01-15T15:20:16.898Z,32.28
2018-01-15T15:22:45.718Z,24.10
2018-01-15T15:25:15.551Z,28.92
2018-01-15T15:27:44.415Z,37.97
2018-01-15T15:30:13.716Z,47.75
2018-01-15T15:32:45.077Z,57.10
2018-01-15T15:35:14.251Z,47.88
2018-01-15T15:37:43.135Z,57.05
2018-01-15T15:40:13.000Z,57.30
2018-01-15T15:42:44.726Z,51.35
2018-01-15T15:45:18.391Z,113.30
2018-01-15T15:47:50.351Z,75.78
2018-01-15T15:50:22.458Z,48.67
2018-01-15T15:52:54.025Z,34.17
2018-01-15T15:55:25.259Z,47.00
2018-01-15T15:57:56.820Z,35.78
2018-01-15T16:00:28.881Z,38.08
2018-01-15T16:03:02.273Z,33.92
2018-01-15T16:05:33.297Z,30.50
2018-01-15T16:08:02.193Z,27.45
2018-01-15T16:10:31.035Z,27.48
2018-01-15T16:12:59.872Z,28.58
2018-01-15T16:15:28.957Z,31.65
2018-01-15T16:17:58.240Z,25.25
2018-01-15T16:20:27.359Z,27.83
2018-01-15T16:22:59.392Z,27.95
2018-01-15T16:25:32.573Z,31.90
2018-01-15T16:28:01.477Z,36.75
2018-01-15T16:30:30.361Z,39.03
2018-01-15T16:33:01.315Z,36.20
2018-01-15T16:35:30.145Z,35.08
2018-01-15T16:37:59.025Z,40.05
2018-01-15T16:40:32.713Z,33.80
2018-01-15T16:43:01.711Z,32.22
2018-01-15T16:45:30.625Z,28.83
2018-01-15T16:47:59.756Z,24.90
2018-01-15T16:50:28.708Z,26.67
2018-01-15T16:52:57.629Z,21.12
2018-01-15T16:55:29.825Z,24.73
2018-01-15T16:57:58.637Z,23.12
2018-01-15T17:00:27.597Z,20.05
2018-01-15T17:02:57.315Z,25.50
2018-01-15T17:05:28.576Z,32.63
2018-01-15T17:07:59.852Z,38.75
2018-01-15T17:10:28.712Z,47.62
2018-01-15T17:12:58.244Z,35.15
2018-01-15T17:15:29.710Z,46.33
2018-01-15T17:17:58.825Z,40.35
2018-01-15T17:20:27.691Z,39.22
2018-01-15T17:22:56.925Z,38.85
2018-01-15T17:25:25.813Z,31.20
2018-01-15T17:27:54.639Z,32.15
2018-01-15T17:33:22.990Z,40.80
2018-01-15T17:35:53.659Z,40.70
2018-01-15T17:38:22.512Z,44.67
2018-01-15T17:40:51.392Z,36.00
2018-01-15T17:43:21.373Z,40.35
2018-01-15T17:45:50.213Z,40.05
2018-01-15T17:48:19.202Z,34.58
2018-01-15T17:50:49.887Z,28.42
2018-01-15T17:53:18.826Z,21.42
2018-01-15T17:55:47.668Z,33.80
2018-01-15T17:58:17.417Z,26.10
2018-01-15T18:00:46.324Z,27.83
2018-01-15T18:03:15.291Z,26.23
2018-01-15T18:05:45.661Z,32.88
2018-01-15T18:08:14.523Z,28.23
2018-01-15T18:10:43.362Z,22.58
2018-01-15T18:13:17.768Z,32.30
2018-01-15T18:15:46.704Z,23.58
2018-01-15T18:18:15.639Z,25.27
2018-01-15T18:20:44.608Z,26.62
2018-01-15T18:23:13.576Z,19.70
2018-01-15T18:25:42.451Z,25.37
2018-01-15T18:28:13.946Z,26.95
2018-01-15T18:30:42.835Z,27.10
2018-01-15T18:33:12.401Z,20.05
2018-01-15T18:35:41.348Z,24.58
2018-01-15T18:38:10.261Z,19.10
2018-01-15T18:40:39.284Z,21.20
2018-01-15T18:43:08.537Z,23.00
2018-01-15T18:45:37.424Z,20.20
2018-01-15T18:48:06.301Z,22.95
2018-01-15T18:50:35.261Z,23.25
2018-01-15T18:53:04.138Z,24.50
2018-01-15T18:55:32.979Z,30.80
2018-01-15T18:58:01.885Z,26.08
2018-01-15T19:00:30.766Z,24.75
2018-01-15T19:02:59.665Z,26.20
2018-01-15T19:05:28.537Z,21.70
2018-01-15T19:07:57.654Z,25.88
2018-01-15T19:10:26.554Z,25.10
2018-01-15T19:12:55.751Z,30.65
2018-01-15T19:15:24.753Z,28.98
2018-01-15T19:17:53.727Z,20.77
2018-01-15T19:20:22.691Z,26.62
2018-01-15T19:22:51.651Z,29.90
2018-01-15T19:25:20.668Z,31.70
2018-01-15T19:27:49.742Z,36.58
2018-01-15T19:30:18.747Z,33.47
2018-01-15T19:32:47.868Z,27.83
2018-01-15T19:38:37.511Z,29.52
2018-01-15T19:41:11.373Z,28.98
2018-01-15T19:44:05.014Z,26.08
2018-01-15T19:46:39.640Z,33.17
2018-01-15T19:49:13.987Z,39.10
2018-01-15T19:51:48.463Z,31.95
2018-01-15T19:54:24.717Z,36.00
2018-01-15T19:57:04.130Z,46.90
2018-01-15T19:59:42.214Z,43.97
2018-01-15T20:02:20.682Z,35.95
2018-01-15T20:04:58.424Z,45.03
2018-01-15T20:07:34.355Z,36.15
